Time;durP1;ratioP1;P1;durP2;ratioP2;P2;SDS_P1;SDS_P2;PMS_P1;PMS_P2;Temp;Humidity;BMP_temperature;BMP_pressure;BME280_temperature;BME280_humidity;BME280_pressure;Samples;Min_cycle;Max_cycle;Signal;HPM_P1;HPM_P2
2022/12/24 00:02:11;;;;;;;126.78;68.30;;;;;;;0.65;100.00;100411.81;4989844;28;20515;-77
2022/12/24 00:04:36;;;;;;;136.48;68.47;;;;;;;1.33;100.00;100518.66;4988364;28;20049;-77
2022/12/24 00:07:02;;;;;;;129.98;64.70;;;;;;;1.27;100.00;100519.31;4994561;28;20494;-77
2022/12/24 00:09:27;;;;;;;136.23;67.55;;;;;;;1.01;100.00;100461.47;5004671;28;20034;-77
2022/12/24 00:11:53;;;;;;;148.65;68.35;;;;;;;0.84;100.00;100416.84;5000295;28;20046;-77
2022/12/24 00:14:18;;;;;;;138.23;69.32;;;;;;;1.29;100.00;100489.25;5003025;28;20101;-78
2022/12/24 00:16:43;;;;;;;135.30;69.15;;;;;;;1.46;100.00;100519.19;5000083;28;20057;-77
2022/12/24 00:19:09;;;;;;;120.20;67.60;;;;;;;0.71;100.00;100402.59;5000603;28;20414;-77
2022/12/24 00:21:34;;;;;;;117.05;63.85;;;;;;;1.39;100.00;100516.34;5000587;28;20401;-76
2022/12/24 00:24:02;;;;;;;123.32;65.45;;;;;;;0.96;100.00;100450.94;5003601;28;20037;-76
2022/12/24 00:26:28;;;;;;;127.22;64.53;;;;;;;0.67;100.00;100380.06;4994423;28;20453;-77
2022/12/24 00:28:53;;;;;;;141.25;68.43;;;;;;;0.59;100.00;100379.75;5001040;28;20054;-78
2022/12/24 00:31:19;;;;;;;109.00;60.65;;;;;;;1.13;100.00;100492.94;5000493;28;20092;-76
2022/12/24 00:33:46;;;;;;;113.07;63.33;;;;;;;0.53;100.00;100373.47;5001926;28;20486;-76
2022/12/24 00:36:12;;;;;;;129.20;68.15;;;;;;;0.51;100.00;100365.66;5004874;28;21386;-77
2022/12/24 00:38:38;;;;;;;128.82;69.32;;;;;;;1.33;100.00;100498.84;5016110;28;20053;-78
2022/12/24 00:41:22;;;;;;;142.23;69.95;;;;;;;0.52;100.00;100379.47;5010855;28;20099;-76
2022/12/24 00:44:09;;;;;;;119.60;62.67;;;;;;;0.95;100.00;100448.28;5001339;28;20050;-78
2022/12/24 00:46:36;;;;;;;120.25;63.97;;;;;;;1.00;100.00;100499.31;5000487;28;20125;-79
2022/12/24 00:49:02;;;;;;;124.25;61.45;;;;;;;0.98;100.00;100492.31;5000749;28;20134;-76
2022/12/24 00:51:28;;;;;;;117.10;60.78;;;;;;;0.92;100.00;100467.13;5004217;28;20052;-78
2022/12/24 00:53:53;;;;;;;128.13;67.85;;;;;;;0.87;100.00;100455.75;5000821;28;20042;-79
2022/12/24 00:56:19;;;;;;;134.70;63.67;;;;;;;-0.08;100.00;100318.56;4986385;28;20112;-77
2022/12/24 00:58:45;;;;;;;112.78;62.15;;;;;;;0.64;100.00;100426.41;5001655;28;20100;-78
2022/12/24 01:01:11;;;;;;;138.75;74.20;;;;;;;0.79;100.00;100490.69;4999238;28;20052;-78
2022/12/24 01:03:36;;;;;;;122.22;62.95;;;;;;;0.95;100.00;100479.28;5001941;28;20044;-76
2022/12/24 01:06:09;;;;;;;112.60;64.20;;;;;;;1.14;100.00;100494.69;5003933;28;20088;-76
2022/12/24 01:08:36;;;;;;;121.65;61.00;;;;;;;1.05;100.00;100487.47;5001061;28;20108;-75
2022/12/24 01:11:03;;;;;;;115.85;65.15;;;;;;;1.14;100.00;100498.97;5000823;28;20057;-78
2022/12/24 01:13:29;;;;;;;116.35;64.50;;;;;;;1.22;100.00;100518.25;5002024;28;20065;-78
2022/12/24 01:15:54;;;;;;;117.90;64.97;;;;;;;1.12;100.00;100475.66;4999445;28;20050;-75
2022/12/24 01:18:21;;;;;;;133.55;67.85;;;;;;;1.03;100.00;100463.28;5000141;28;20034;-76
2022/12/24 01:21:01;;;;;;;124.05;63.95;;;;;;;1.05;100.00;100460.72;4999657;28;20084;-75
2022/12/24 01:23:28;;;;;;;124.60;63.25;;;;;;;1.15;100.00;100483.53;4998634;28;20789;-76
2022/12/24 01:25:53;;;;;;;134.95;72.28;;;;;;;0.53;100.00;100364.03;5004095;28;20054;-78
2022/12/24 01:28:20;;;;;;;118.93;58.97;;;;;;;0.45;100.00;100357.69;4999599;28;20489;-78
2022/12/24 01:30:47;;;;;;;130.23;60.92;;;;;;;0.96;100.00;100452.63;4999033;28;20132;-76
2022/12/24 01:33:13;;;;;;;116.43;66.40;;;;;;;0.41;100.00;100350.63;4989280;28;20401;-75
2022/12/24 01:35:40;;;;;;;139.93;66.80;;;;;;;1.00;100.00;100467.44;4997783;28;20137;-78
2022/12/24 01:38:06;;;;;;;122.85;62.65;;;;;;;1.27;100.00;100483.13;4997572;28;20112;-78
2022/12/24 01:43:24;;;;;;;113.82;66.60;;;;;;;0.18;100.00;100329.06;5006498;28;20466;-77
2022/12/24 01:45:57;;;;;;;127.22;63.10;;;;;;;0.16;100.00;100335.84;5001430;28;20084;-77
2022/12/24 01:48:41;;;;;;;124.18;60.65;;;;;;;0.71;100.00;100458.53;4998068;28;20030;-77
2022/12/24 01:51:15;;;;;;;;;;;;;;;0.65;100.00;100472.06;4998603;28;20073;-76
2022/12/24 01:53:44;;;;;;;112.90;56.95;;;;;;;-0.16;100.00;100307.06;4999807;28;19921;-77
2022/12/24 01:56:11;;;;;;;118.30;61.10;;;;;;;0.05;100.00;100339.69;4999870;28;20037;-77
2022/12/24 01:58:41;;;;;;;133.32;61.47;;;;;;;-0.01;100.00;100340.34;5000593;28;20054;-77
2022/12/24 02:01:07;;;;;;;112.47;60.25;;;;;;;-0.01;100.00;100325.75;5002594;28;20056;-78
2022/12/24 02:03:32;;;;;;;117.78;61.03;;;;;;;0.40;100.00;100361.78;5001618;28;20033;-77
2022/12/24 02:05:59;;;;;;;118.07;61.65;;;;;;;0.31;100.00;100344.22;4999026;28;20406;-77
2022/12/24 02:08:38;;;;;;;130.05;61.53;;;;;;;0.46;100.00;100369.75;4996144;28;20053;-78
2022/12/24 02:11:19;;;;;;;115.03;59.33;;;;;;;1.04;100.00;100477.06;4997949;28;20549;-77
2022/12/24 02:13:53;;;;;;;119.05;66.22;;;;;;;0.87;100.00;100453.16;5000521;28;20042;-79
2022/12/24 02:16:40;;;;;;;132.80;68.22;;;;;;;0.99;100.00;100483.75;5001045;28;20573;-77
2022/12/24 02:19:11;;;;;;;121.78;62.10;;;;;;;1.01;100.00;100497.63;4993189;28;20134;-77
2022/12/24 02:21:49;;;;;;;134.77;65.10;;;;;;;0.84;100.00;100448.75;4981267;28;20646;-77
2022/12/24 02:25:01;;;;;;;114.93;57.40;;;;;;;0.91;100.00;100460.19;4966652;28;20034;-77
2022/12/24 02:27:29;;;;;;;111.78;56.35;;;;;;;0.77;100.00;100459.66;4972844;28;20042;-79
2022/12/24 02:30:11;;;;;;;112.90;59.58;;;;;;;0.70;100.00;100441.25;4998853;28;20117;-77
2022/12/24 02:33:04;;;;;;;114.47;63.55;;;;;;;0.92;100.00;100466.25;4981621;28;20046;-77
2022/12/24 02:35:58;;;;;;;112.10;60.23;;;;;;;0.66;100.00;100448.03;4999092;28;20497;-79
2022/12/24 02:38:40;;;;;;;119.70;61.33;;;;;;;0.75;100.00;100445.81;4988448;28;20585;-78
2022/12/24 02:44:29;;;;;;;132.85;60.53;;;;;;;0.24;100.00;100399.00;4997859;28;20060;-78
2022/12/24 02:46:57;;;;;;;131.68;65.47;;;;;;;0.10;100.00;100371.75;5001027;28;20093;-77
2022/12/24 02:49:23;;;;;;;125.13;68.65;;;;;;;0.05;100.00;100371.56;4999528;28;20152;-78
2022/12/24 02:51:49;;;;;;;125.65;63.58;;;;;;;0.31;100.00;100398.44;5002997;28;20451;-77
2022/12/24 02:54:14;;;;;;;119.53;62.60;;;;;;;0.62;100.00;100441.84;5008927;28;20034;-79
2022/12/24 02:57:08;;;;;;;121.05;65.78;;;;;;;0.30;100.00;100363.09;5014619;28;20129;-77
2022/12/24 02:59:42;;;;;;;130.65;68.47;;;;;;;0.82;100.00;100449.53;4982058;28;20050;-75
2022/12/24 03:02:36;;;;;;;113.00;57.00;;;;;;;0.60;100.00;100391.84;4996926;28;20077;-77
2022/12/24 03:05:11;;;;;;;122.30;63.90;;;;;;;0.89;100.00;100448.94;4999186;28;20078;-76
2022/12/24 03:07:51;;;;;;;126.55;73.63;;;;;;;0.59;100.00;100392.66;4998880;28;20054;-77
2022/12/24 03:10:32;;;;;;;127.05;66.13;;;;;;;0.89;100.00;100448.03;4998215;28;20141;-77
2022/12/24 03:13:14;;;;;;;123.35;63.85;;;;;;;0.89;100.00;100464.44;4999185;28;20804;-77
2022/12/24 03:15:41;;;;;;;113.47;67.35;;;;;;;0.20;100.00;100345.50;4999803;28;20054;-77
2022/12/24 03:18:09;;;;;;;133.18;66.68;;;;;;;0.97;100.00;100449.22;5001712;28;20119;-77
2022/12/24 03:20:40;;;;;;;140.77;65.47;;;;;;;1.00;100.00;100447.63;5000207;28;20049;-77
2022/12/24 03:23:07;;;;;;;125.45;69.30;;;;;;;0.54;100.00;100355.47;4998939;28;20081;-78
2022/12/24 03:25:37;;;;;;;123.80;62.25;;;;;;;1.33;100.00;100469.56;5016442;28;20128;-78
2022/12/24 03:28:05;;;;;;;153.43;77.43;;;;;;;0.49;100.00;100328.59;4999170;28;20054;-78
2022/12/24 03:30:31;;;;;;;117.68;64.75;;;;;;;0.59;100.00;100356.53;4996398;28;20034;-76
2022/12/24 03:32:57;;;;;;;130.55;64.97;;;;;;;1.12;100.00;100436.88;4998774;28;20054;-76
2022/12/24 03:35:22;;;;;;;155.15;66.80;;;;;;;0.41;100.00;100317.09;4997022;28;20042;-76
2022/12/24 03:37:48;;;;;;;124.35;71.30;;;;;;;1.41;100.00;100471.63;4997570;28;20164;-76
2022/12/24 03:40:13;;;;;;;115.70;66.65;;;;;;;0.62;100.00;100364.38;4994944;28;20054;-76
2022/12/24 03:42:39;;;;;;;126.38;64.35;;;;;;;0.07;100.00;100296.78;4997118;28;20054;-75
2022/12/24 03:45:05;;;;;;;125.22;71.63;;;;;;;0.56;100.00;100396.81;5002403;28;20034;-75
2022/12/24 03:47:31;;;;;;;125.22;68.22;;;;;;;0.31;100.00;100327.88;5003412;28;20145;-78
2022/12/24 03:49:57;;;;;;;134.50;71.85;;;;;;;0.60;100.00;100367.72;4996208;28;20053;-76
2022/12/24 03:52:22;;;;;;;130.90;63.83;;;;;;;1.29;100.00;100468.56;5004831;28;20060;-78
2022/12/24 03:54:48;;;;;;;134.75;66.90;;;;;;;1.20;100.00;100455.28;5002205;28;20058;-77
2022/12/24 03:57:13;;;;;;;125.90;69.07;;;;;;;1.22;100.00;100469.16;5003283;28;20506;-77
2022/12/24 03:59:39;;;;;;;130.38;71.65;;;;;;;1.08;100.00;100471.22;5002011;28;20124;-78
2022/12/24 04:02:04;;;;;;;123.65;66.55;;;;;;;1.19;100.00;100475.06;5004180;28;20156;-77
2022/12/24 04:04:32;;;;;;;121.63;66.65;;;;;;;0.46;100.00;100331.03;5000714;28;20050;-76
2022/12/24 04:06:57;;;;;;;120.57;66.20;;;;;;;1.24;100.00;100465.81;5001018;28;20050;-77
2022/12/24 04:09:23;;;;;;;120.22;61.75;;;;;;;1.15;100.00;100449.94;4987637;28;20508;-79
2022/12/24 04:11:48;;;;;;;127.35;68.88;;;;;;;0.40;100.00;100313.63;5002838;28;20069;-77
2022/12/24 04:14:14;;;;;;;116.85;66.75;;;;;;;0.43;100.00;100336.09;5001446;28;20104;-77
2022/12/24 04:16:39;;;;;;;118.68;68.93;;;;;;;1.29;100.00;100475.41;5005238;28;20045;-76
2022/12/24 04:19:05;;;;;;;126.00;69.25;;;;;;;1.19;100.00;100497.44;5001223;28;20042;-77
2022/12/24 04:21:30;;;;;;;115.63;69.00;;;;;;;1.13;100.00;100486.91;5006743;28;20547;-77
2022/12/24 04:23:56;;;;;;;134.05;65.43;;;;;;;1.02;100.00;100455.47;5000783;28;20046;-75
2022/12/24 04:26:21;;;;;;;131.55;68.93;;;;;;;1.24;100.00;100476.16;5002015;28;20038;-77
2022/12/24 04:28:47;;;;;;;120.18;67.22;;;;;;;0.63;100.00;100455.63;5001174;28;20100;-77
2022/12/24 04:31:15;;;;;;;135.23;71.05;;;;;;;0.58;100.00;100458.00;5003316;28;20072;-77
2022/12/24 04:33:41;;;;;;;111.72;64.65;;;;;;;-0.07;100.00;100288.50;5003042;28;20151;-76
2022/12/24 04:36:07;;;;;;;122.78;70.20;;;;;;;0.37;100.00;100351.31;5005608;28;20038;-76
2022/12/24 04:38:33;;;;;;;121.88;67.40;;;;;;;1.09;100.00;100451.41;5002151;28;20476;-75
2022/12/24 04:41:10;;;;;;;123.15;67.28;;;;;;;0.52;100.00;100369.16;5002021;28;20054;-77
2022/12/24 04:43:36;;;;;;;124.80;66.72;;;;;;;1.22;100.00;100475.22;5002144;28;20053;-76
2022/12/24 04:46:10;;;;;;;127.57;68.93;;;;;;;1.22;100.00;100476.91;4999425;28;20077;-76
2022/12/24 04:48:36;;;;;;;147.05;72.35;;;;;;;1.24;100.00;100468.41;4984497;28;20030;-76
2022/12/24 04:51:04;;;;;;;119.00;65.78;;;;;;;1.05;100.00;100455.56;5000984;28;20026;-76
2022/12/24 04:53:30;;;;;;;129.73;67.93;;;;;;;0.95;100.00;100431.09;5000500;28;20107;-76
2022/12/24 04:55:56;;;;;;;131.40;68.38;;;;;;;0.38;100.00;100332.47;4999423;28;20074;-76
2022/12/24 04:58:22;;;;;;;129.10;64.35;;;;;;;0.76;100.00;100395.03;5002777;28;20056;-76
2022/12/24 05:00:48;;;;;;;137.18;66.50;;;;;;;1.08;100.00;100452.22;5000739;28;20057;-77
2022/12/24 05:03:14;;;;;;;137.68;65.45;;;;;;;1.22;100.00;100480.38;5003774;28;20026;-76
2022/12/24 05:05:40;;;;;;;134.18;67.07;;;;;;;1.04;100.00;100477.06;4998979;28;20037;-76
2022/12/24 05:08:05;;;;;;;118.60;66.07;;;;;;;0.06;100.00;100323.41;5003319;28;20050;-76
2022/12/24 05:10:31;;;;;;;130.40;69.47;;;;;;;0.90;100.00;100449.81;5003684;28;20045;-76
2022/12/24 05:12:56;;;;;;;125.53;68.10;;;;;;;0.24;100.00;100324.16;5009890;28;20066;-76
2022/12/24 05:15:22;;;;;;;125.38;67.82;;;;;;;1.10;100.00;100459.25;4999753;28;20546;-78
2022/12/24 05:17:47;;;;;;;119.28;66.10;;;;;;;1.15;100.00;100482.66;4986746;28;20422;-76
2022/12/24 05:20:13;;;;;;;117.72;64.50;;;;;;;1.14;100.00;100486.06;5001874;28;20058;-76
2022/12/24 05:28:06;;;;;;;113.90;60.22;;;;;;;1.13;100.00;100476.56;4998154;28;20057;-77
2022/12/24 05:30:32;;;;;;;115.22;56.65;;;;;;;0.63;100.00;100394.56;5001930;28;20022;-78
2022/12/24 05:32:57;;;;;;;123.88;63.28;;;;;;;0.80;100.00;100452.03;5002197;28;20789;-77
2022/12/24 05:35:23;;;;;;;111.00;62.75;;;;;;;0.87;100.00;100480.66;5000070;28;20034;-76
2022/12/24 05:37:48;;;;;;;110.38;62.63;;;;;;;1.04;100.00;100472.78;4984470;28;20042;-77
2022/12/24 05:40:14;;;;;;;109.97;61.60;;;;;;;1.07;100.00;100476.31;4992682;28;20057;-79
2022/12/24 05:42:39;;;;;;;120.70;62.17;;;;;;;0.96;100.00;100447.44;5000791;28;20252;-75
2022/12/24 05:45:05;;;;;;;128.05;67.57;;;;;;;-0.33;100.00;100345.03;5000192;28;20493;-76
2022/12/24 05:47:31;;;;;;;114.82;68.72;;;;;;;0.83;100.00;100493.47;5000817;28;20146;-76
2022/12/24 05:49:56;;;;;;;119.43;66.40;;;;;;;0.58;100.00;100445.09;5004939;28;20161;-77
2022/12/24 05:52:22;;;;;;;122.38;67.43;;;;;;;0.44;100.00;100438.50;4997964;28;20069;-76
2022/12/24 05:54:47;;;;;;;127.70;66.93;;;;;;;0.16;100.00;100362.56;5000333;28;20048;-76
2022/12/24 05:57:12;;;;;;;114.03;60.97;;;;;;;0.02;100.00;100348.19;4998400;28;20053;-76
2022/12/24 05:59:38;;;;;;;119.32;67.18;;;;;;;0.65;100.00;100454.00;4999991;28;20054;-76
2022/12/24 06:02:03;;;;;;;105.97;63.65;;;;;;;0.88;100.00;100488.50;4992128;28;20112;-77
2022/12/24 06:04:29;;;;;;;104.65;60.35;;;;;;;0.63;100.00;100443.63;4999733;28;20042;-76
2022/12/24 06:06:54;;;;;;;121.43;66.00;;;;;;;-0.15;100.00;100306.25;4992845;28;20041;-76
2022/12/24 06:09:20;;;;;;;102.72;61.65;;;;;;;-0.16;100.00;100306.19;4996566;28;20030;-77
2022/12/24 06:11:45;;;;;;;113.55;64.45;;;;;;;-0.08;100.00;100336.63;5001223;28;20481;-77
2022/12/24 06:14:12;;;;;;;129.93;69.38;;;;;;;0.65;100.00;100478.94;5001202;28;20073;-76
2022/12/24 06:16:38;;;;;;;117.05;62.33;;;;;;;-0.16;100.00;100329.41;5000229;28;20516;-76
2022/12/24 06:19:03;;;;;;;125.57;61.42;;;;;;;-0.14;100.00;100314.84;4999879;28;20046;-76
2022/12/24 06:21:29;;;;;;;115.60;60.10;;;;;;;-0.74;100.00;100265.97;4997911;28;20458;-76
2022/12/24 06:23:54;;;;;;;121.60;69.13;;;;;;;0.55;100.00;100426.03;4998648;28;20479;-76
2022/12/24 06:26:22;;;;;;;109.30;60.58;;;;;;;0.19;100.00;100359.22;5002670;28;20053;-76
2022/12/24 06:28:49;;;;;;;111.55;60.88;;;;;;;0.68;100.00;100425.72;5002553;28;20042;-77
2022/12/24 06:31:17;;;;;;;115.03;64.97;;;;;;;0.18;100.00;100357.44;4996682;28;20061;-76
2022/12/24 06:33:43;;;;;;;117.40;62.17;;;;;;;0.82;100.00;100483.09;5000089;28;20101;-77
2022/12/24 06:36:14;;;;;;;122.93;63.17;;;;;;;-0.02;100.00;100343.75;4997070;28;20486;-76
2022/12/24 06:38:39;;;;;;;119.07;65.47;;;;;;;0.81;100.00;100461.53;4999614;28;20084;-75
2022/12/24 06:41:06;;;;;;;124.60;65.93;;;;;;;0.23;100.00;100362.78;4997488;28;20501;-78
2022/12/24 06:43:33;;;;;;;117.13;63.00;;;;;;;0.95;100.00;100476.72;4998563;28;20053;-78
2022/12/24 06:46:00;;;;;;;116.43;65.18;;;;;;;0.39;100.00;100357.44;4983652;28;20058;-78
2022/12/24 06:48:25;;;;;;;113.95;60.22;;;;;;;0.81;100.00;100446.03;4976507;28;20046;-77
2022/12/24 06:50:51;;;;;;;107.35;56.40;;;;;;;1.15;100.00;100480.09;5000723;28;20045;-76
2022/12/24 06:53:16;;;;;;;102.80;54.85;;;;;;;0.71;100.00;100422.38;4987511;28;20046;-77
2022/12/24 06:55:42;;;;;;;92.97;55.42;;;;;;;0.33;100.00;100328.81;4983796;28;20545;-77
2022/12/24 06:58:07;;;;;;;98.72;58.65;;;;;;;0.83;100.00;100391.88;4997906;28;20117;-77
2022/12/24 07:00:33;;;;;;;93.15;55.45;;;;;;;0.75;100.00;100385.50;4997633;28;20096;-79
2022/12/24 07:02:58;;;;;;;104.30;56.72;;;;;;;0.02;100.00;100237.28;5003419;28;20033;-78
2022/12/24 07:05:24;;;;;;;99.50;56.58;;;;;;;1.39;100.00;100452.56;4998453;28;20046;-79
2022/12/24 07:07:50;;;;;;;111.32;60.05;;;;;;;0.87;100.00;100348.94;4997425;28;20053;-77
2022/12/24 07:10:16;;;;;;;94.13;53.20;;;;;;;1.30;100.00;100439.31;4997978;28;20160;-78
2022/12/24 07:12:42;;;;;;;94.60;52.03;;;;;;;1.55;100.00;100424.72;4983483;28;20045;-78
2022/12/24 07:15:09;;;;;;;91.18;52.78;;;;;;;1.65;100.00;100435.44;4998555;28;20048;-77
2022/12/24 07:17:35;;;;;;;88.93;52.58;;;;;;;0.95;100.00;100311.38;4998865;28;20049;-78
2022/12/24 07:20:00;;;;;;;97.85;51.80;;;;;;;1.52;100.00;100393.56;4996894;28;20129;-78
2022/12/24 07:22:26;;;;;;;85.25;50.58;;;;;;;1.18;100.00;100325.16;5003537;28;20097;-77
2022/12/24 07:24:51;;;;;;;92.22;49.15;;;;;;;1.42;100.00;100348.41;5005653;28;20149;-78
2022/12/24 07:27:17;;;;;;;76.82;45.00;;;;;;;2.27;100.00;100486.75;5002917;28;20096;-77
2022/12/24 07:29:42;;;;;;;75.85;47.13;;;;;;;2.11;100.00;100449.13;4987301;28;20049;-77
2022/12/24 07:32:08;;;;;;;82.38;46.20;;;;;;;1.50;100.00;100326.28;5003424;28;20046;-77
2022/12/24 07:34:34;;;;;;;82.68;45.85;;;;;;;2.39;100.00;100438.00;5000629;28;20092;-77
2022/12/24 07:37:00;;;;;;;86.57;49.97;;;;;;;2.57;100.00;100479.16;5000608;28;20062;-77
2022/12/24 07:39:25;;;;;;;65.00;40.58;;;;;;;2.49;100.00;100459.91;5000134;28;20049;-79
2022/12/24 07:41:51;;;;;;;66.60;40.22;;;;;;;2.40;100.00;100429.38;5004665;28;20033;-77
2022/12/24 07:44:16;;;;;;;69.00;42.75;;;;;;;2.72;100.00;100445.97;5001998;28;20584;-78
2022/12/24 07:46:43;;;;;;;66.43;40.63;;;;;;;2.87;100.00;100445.59;5003758;28;20053;-78
2022/12/24 07:49:09;;;;;;;65.82;43.13;;;;;;;2.62;100.00;100392.13;5002820;28;20046;-78
2022/12/24 07:51:35;;;;;;;70.13;40.88;;;;;;;2.67;100.00;100421.66;5000283;28;20104;-77
2022/12/24 07:54:00;;;;;;;64.90;40.33;;;;;;;2.80;100.00;100403.88;5002504;28;20473;-76
2022/12/24 07:56:26;;;;;;;63.63;36.40;;;;;;;2.73;100.00;100401.09;4981774;28;20042;-77
2022/12/24 07:58:51;;;;;;;73.10;36.90;;;;;;;2.24;100.00;100297.69;4989712;28;20057;-77
2022/12/24 08:01:17;;;;;;;63.88;39.70;;;;;;;3.24;100.00;100443.25;4964917;28;20398;-77
2022/12/24 08:03:43;;;;;;;66.55;41.35;;;;;;;3.35;100.00;100455.72;4983735;28;20133;-76
2022/12/24 08:06:10;;;;;;;63.05;38.38;;;;;;;2.60;100.00;100302.22;4982871;28;20554;-77
2022/12/24 08:08:36;;;;;;;57.70;35.80;;;;;;;2.72;100.00;100325.94;5002303;28;20042;-76
2022/12/24 08:11:05;;;;;;;59.20;37.58;;;;;;;2.84;100.00;100300.38;5002204;28;20060;-77
2022/12/24 08:13:31;;;;;;;64.38;35.85;;;;;;;3.43;100.00;100367.75;4992069;28;20081;-77
2022/12/24 08:15:57;;;;;;;44.75;33.92;;;;;;;3.63;100.00;100360.53;4991489;28;20141;-76
2022/12/24 08:18:23;;;;;;;57.53;35.75;;;;;;;4.02;100.00;100422.97;4998642;28;20639;-77
2022/12/24 08:20:49;;;;;;;66.53;34.65;;;;;;;3.48;100.00;100297.84;5006049;28;20041;-78
2022/12/24 08:23:15;;;;;;;53.05;33.58;;;;;;;3.40;100.00;100256.16;4984504;28;20521;-77
2022/12/24 08:25:45;;;;;;;48.17;34.85;;;;;;;4.38;100.00;100413.53;4995643;28;20129;-76
2022/12/24 08:28:13;;;;;;;59.42;36.92;;;;;;;4.63;100.00;100420.19;4998456;28;20096;-77
2022/12/24 08:30:39;;;;;;;50.47;31.63;;;;;;;4.41;100.00;100379.81;5002978;28;20054;-77
2022/12/24 08:33:04;;;;;;;57.75;31.58;;;;;;;4.10;100.00;100285.59;5005337;28;20083;-77
2022/12/24 08:35:30;;;;;;;51.22;31.17;;;;;;;4.20;100.00;100295.34;5003153;28;20420;-78
2022/12/24 08:37:56;;;;;;;48.13;30.73;;;;;;;4.31;100.00;100313.78;4991578;28;20072;-76
2022/12/24 08:40:22;;;;;;;51.22;32.08;;;;;;;4.85;100.00;100388.66;5002318;28;20046;-77
2022/12/24 08:42:47;;;;;;;47.03;30.95;;;;;;;4.31;100.00;100303.41;5001685;28;20129;-75
2022/12/24 08:45:13;;;;;;;50.10;34.85;;;;;;;4.36;100.00;100283.59;5001833;28;20048;-76
2022/12/24 08:47:39;;;;;;;55.53;35.03;;;;;;;5.09;100.00;100410.84;5004785;28;20062;-76
2022/12/24 08:50:05;;;;;;;49.20;32.45;;;;;;;5.16;100.00;100386.72;4969035;28;20060;-76
2022/12/24 08:52:31;;;;;;;48.50;33.60;;;;;;;4.76;100.00;100287.06;5005089;28;20120;-76
2022/12/24 08:54:56;;;;;;;46.97;31.85;;;;;;;4.80;100.00;100272.41;5001427;28;20042;-76
2022/12/24 08:57:22;;;;;;;49.58;30.63;;;;;;;4.98;100.00;100280.59;4994738;28;20046;-78
2022/12/24 08:59:48;;;;;;;52.55;33.42;;;;;;;5.54;100.00;100359.75;4999681;28;20046;-77
2022/12/24 09:02:13;;;;;;;59.22;35.28;;;;;;;5.04;100.00;100240.84;5003486;28;20404;-76
2022/12/24 09:04:39;;;;;;;54.47;33.78;;;;;;;6.10;100.00;100391.19;5003408;28;20047;-75
2022/12/24 09:07:05;;;;;;;48.13;34.80;;;;;;;6.35;100.00;100392.50;4998683;28;20846;-78
2022/12/24 09:09:31;;;;;;;49.53;32.92;;;;;;;6.38;100.00;100350.84;4997380;28;20493;-76
2022/12/24 09:11:57;;;;;;;55.15;34.33;;;;;;;6.68;100.00;100389.56;4998655;28;20045;-78
2022/12/24 09:14:22;;;;;;;58.83;37.00;;;;;;;5.56;100.00;100171.53;4981153;28;20050;-77
2022/12/24 09:16:48;;;;;;;54.92;35.35;;;;;;;6.95;100.00;100377.75;4984537;28;20097;-78
2022/12/24 09:19:13;;;;;;;57.10;33.72;;;;;;;6.37;100.00;100252.69;4979045;28;20054;-77
2022/12/24 09:21:38;;;;;;;50.60;30.92;;;;;;;7.07;100.00;100371.84;4981742;28;20045;-78
2022/12/24 09:24:04;;;;;;;59.80;35.80;;;;;;;7.14;100.00;100382.41;5000204;28;20501;-77
2022/12/24 09:26:30;;;;;;;64.97;39.22;;;;;;;7.23;100.00;100373.78;4989698;28;20050;-77
2022/12/24 09:28:57;;;;;;;51.10;35.88;;;;;;;7.18;100.00;100362.41;4966222;28;20425;-79
2022/12/24 09:31:23;;;;;;;52.70;34.22;;;;;;;7.47;100.00;100378.47;4989721;28;20045;-76
2022/12/24 09:33:50;;;;;;;52.67;36.72;;;;;;;7.49;100.00;100371.53;4998834;28;20058;-76
2022/12/24 09:36:16;;;;;;;59.47;35.28;;;;;;;7.47;100.00;100330.56;4998563;28;20045;-77
2022/12/24 09:38:42;;;;;;;56.28;38.17;;;;;;;7.49;100.00;100350.66;5000170;28;20042;-77
2022/12/24 09:41:54;;;;;;;68.78;40.42;;;;;;;7.61;100.00;100374.28;5003186;28;20046;-76
2022/12/24 09:44:38;;;;;;;54.15;39.35;;;;;;;7.61;100.00;100381.25;4958462;28;20085;-78
2022/12/24 09:47:10;;;;;;;;;;;;;;;7.61;100.00;100376.88;4985357;28;20054;-76
2022/12/24 09:49:46;;;;;;;56.00;38.78;;;;;;;7.51;100.00;100340.19;4991183;28;19930;-76
2022/12/24 09:52:23;;;;;;;73.43;44.22;;;;;;;7.65;100.00;100353.41;4997435;28;20053;-77
2022/12/24 09:55:13;;;;;;;73.95;51.28;;;;;;;7.71;100.00;100377.00;5000045;28;20052;-77
2022/12/24 09:57:40;;;;;;;68.40;49.03;;;;;;;7.78;100.00;100378.81;4997737;28;20076;-77
2022/12/24 10:00:20;;;;;;;59.70;41.78;;;;;;;6.97;100.00;100266.50;4998657;28;20761;-78
2022/12/24 10:02:46;;;;;;;73.82;51.03;;;;;;;7.03;100.00;100297.03;4997396;28;20529;-77
2022/12/24 10:05:17;;;;;;;81.65;51.58;;;;;;;6.88;100.00;100250.72;4997745;28;20039;-77
2022/12/24 10:07:57;;;;;;;73.65;49.25;;;;;;;7.56;100.00;100375.06;4995837;28;20058;-76
2022/12/24 10:10:31;;;;;;;62.40;45.25;;;;;;;7.51;100.00;100384.59;4997879;28;20058;-77
2022/12/24 10:13:29;;;;;;;68.15;48.78;;;;;;;7.17;100.00;100340.69;5000430;28;20061;-77
2022/12/24 10:16:23;;;;;;;79.03;52.58;;;;;;;7.38;100.00;100396.63;4993051;28;20049;-77
2022/12/24 10:18:58;;;;;;;;;;;;;;;7.24;100.00;100406.88;5001298;28;20041;-76
2022/12/24 10:21:26;;;;;;;67.90;43.92;;;;;;;7.21;100.00;100403.34;4997815;28;20381;-78
2022/12/24 10:24:24;;;;;;;82.88;54.90;;;;;;;7.03;100.00;100403.97;4998345;28;20075;-75
2022/12/24 10:26:50;;;;;;;79.55;53.47;;;;;;;6.64;100.00;100408.59;4988000;28;20053;-75
2022/12/24 10:29:20;;;;;;;74.72;53.90;;;;;;;6.65;100.00;100405.16;4994050;28;20049;-78
2022/12/24 10:32:24;;;;;;;81.38;52.53;;;;;;;6.75;100.00;100406.16;4995932;28;20563;-78
2022/12/24 10:35:05;;;;;;;61.95;43.67;;;;;;;6.68;100.00;100414.75;4972006;28;20383;-78
2022/12/24 10:37:30;;;;;;;68.80;46.05;;;;;;;6.82;100.00;100407.16;5000433;28;20048;-76
2022/12/24 10:39:58;;;;;;;95.38;57.45;;;;;;;6.10;100.00;100294.81;4995670;28;20050;-75
2022/12/24 10:42:31;;;;;;;85.40;54.15;;;;;;;6.69;100.00;100406.94;4999872;28;20117;-76
2022/12/24 10:45:01;;;;;;;68.90;44.83;;;;;;;6.68;100.00;100373.03;4997926;28;20191;-77
2022/12/24 10:47:29;;;;;;;79.65;54.45;;;;;;;6.43;100.00;100315.31;4995134;28;20045;-78
2022/12/24 10:50:04;;;;;;;90.22;57.13;;;;;;;6.16;100.00;100276.69;4995953;28;20065;-77
2022/12/24 10:52:34;;;;;;;69.40;46.38;;;;;;;6.55;100.00;100380.69;4994717;28;20041;-76
2022/12/24 10:55:10;;;;;;;68.78;43.75;;;;;;;6.85;100.00;100395.00;5000490;28;20052;-77
2022/12/24 10:57:36;;;;;;;69.75;43.80;;;;;;;6.27;100.00;100282.03;5013058;28;20129;-77
2022/12/24 11:00:05;;;;;;;87.22;52.95;;;;;;;6.79;100.00;100397.56;5002307;28;20045;-77
2022/12/24 11:02:38;;;;;;;73.80;52.30;;;;;;;5.88;100.00;100268.38;4999430;28;20046;-77
2022/12/24 11:05:29;;;;;;;68.85;44.72;;;;;;;5.91;100.00;100284.06;5002566;28;20056;-77
2022/12/24 11:08:12;;;;;;;80.28;54.97;;;;;;;6.50;100.00;100397.06;5002139;28;20042;-76
2022/12/24 11:10:41;;;;;;;74.05;46.25;;;;;;;5.96;100.00;100291.09;4999976;28;20133;-76
2022/12/24 11:13:29;;;;;;;68.57;46.45;;;;;;;6.58;100.00;100405.00;5001122;28;20046;-75
2022/12/24 11:16:01;;;;;;;73.97;47.03;;;;;;;5.70;100.00;100253.31;5003853;28;20054;-76
2022/12/24 11:18:27;;;;;;;65.13;41.60;;;;;;;6.70;100.00;100403.50;5000875;28;20045;-77
2022/12/24 11:20:53;;;;;;;76.07;45.42;;;;;;;6.72;100.00;100412.22;5001835;28;20030;-77
2022/12/24 11:23:19;;;;;;;76.28;50.13;;;;;;;5.75;100.00;100268.16;5006187;28;20840;-77
2022/12/24 11:25:49;;;;;;;83.47;59.97;;;;;;;6.39;100.00;100389.09;5003629;28;20045;-78